sensor_id;sensor_type;location;lat;lon;timestamp;P1;durP1;ratioP1;P2;durP2;ratioP2
12884;SDS011;6510;51.362;7.370;2022-11-22T00:00:06;2.47;;;1.47;;
12884;SDS011;6510;51.362;7.370;2022-11-22T00:02:32;3.17;;;1.50;;
12884;SDS011;6510;51.362;7.370;2022-11-22T00:04:58;4.20;;;1.50;;
12884;SDS011;6510;51.362;7.370;2022-11-22T00:07:24;2.73;;;1.67;;
12884;SDS011;6510;51.362;7.370;2022-11-22T00:09:50;5.23;;;1.80;;
12884;SDS011;6510;51.362;7.370;2022-11-22T00:12:15;4.30;;;1.73;;
12884;SDS011;6510;51.362;7.370;2022-11-22T00:14:41;4.07;;;1.83;;
12884;SDS011;6510;51.362;7.370;2022-11-22T00:17:06;6.73;;;1.77;;
12884;SDS011;6510;51.362;7.370;2022-11-22T00:19:32;3.93;;;1.90;;
12884;SDS011;6510;51.362;7.370;2022-11-22T00:21:59;2.13;;;1.90;;
12884;SDS011;6510;51.362;7.370;2022-11-22T00:24:25;3.60;;;1.87;;
12884;SDS011;6510;51.362;7.370;2022-11-22T00:26:51;2.77;;;1.90;;
12884;SDS011;6510;51.362;7.370;2022-11-22T00:29:16;1.80;;;1.70;;
12884;SDS011;6510;51.362;7.370;2022-11-22T00:31:42;4.10;;;1.90;;
12884;SDS011;6510;51.362;7.370;2022-11-22T00:34:07;2.77;;;1.80;;
12884;SDS011;6510;51.362;7.370;2022-11-22T00:36:33;5.07;;;2.00;;
12884;SDS011;6510;51.362;7.370;2022-11-22T00:38:59;4.37;;;2.13;;
12884;SDS011;6510;51.362;7.370;2022-11-22T00:41:24;3.47;;;2.10;;
12884;SDS011;6510;51.362;7.370;2022-11-22T00:43:50;4.67;;;1.87;;
12884;SDS011;6510;51.362;7.370;2022-11-22T00:46:15;2.53;;;1.77;;
12884;SDS011;6510;51.362;7.370;2022-11-22T00:48:41;3.43;;;1.80;;
12884;SDS011;6510;51.362;7.370;2022-11-22T00:51:06;3.23;;;1.60;;
12884;SDS011;6510;51.362;7.370;2022-11-22T00:53:32;3.57;;;1.87;;
12884;SDS011;6510;51.362;7.370;2022-11-22T00:55:58;3.90;;;1.80;;
12884;SDS011;6510;51.362;7.370;2022-11-22T00:58:23;1.90;;;1.80;;
12884;SDS011;6510;51.362;7.370;2022-11-22T01:00:49;3.07;;;1.90;;
12884;SDS011;6510;51.362;7.370;2022-11-22T01:03:15;4.63;;;2.20;;
12884;SDS011;6510;51.362;7.370;2022-11-22T01:05:41;2.20;;;1.60;;
12884;SDS011;6510;51.362;7.370;2022-11-22T01:08:06;2.27;;;1.70;;
12884;SDS011;6510;51.362;7.370;2022-11-22T01:10:36;4.53;;;2.10;;
12884;SDS011;6510;51.362;7.370;2022-11-22T01:13:02;2.40;;;1.80;;
12884;SDS011;6510;51.362;7.370;2022-11-22T01:15:27;3.30;;;2.17;;
12884;SDS011;6510;51.362;7.370;2022-11-22T01:17:53;4.43;;;2.13;;
12884;SDS011;6510;51.362;7.370;2022-11-22T01:20:19;3.00;;;2.07;;
12884;SDS011;6510;51.362;7.370;2022-11-22T01:22:44;2.80;;;1.90;;
12884;SDS011;6510;51.362;7.370;2022-11-22T01:25:10;4.33;;;2.10;;
12884;SDS011;6510;51.362;7.370;2022-11-22T01:27:36;2.50;;;1.97;;
12884;SDS011;6510;51.362;7.370;2022-11-22T01:30:02;5.07;;;2.30;;
12884;SDS011;6510;51.362;7.370;2022-11-22T01:32:28;2.37;;;1.90;;
12884;SDS011;6510;51.362;7.370;2022-11-22T01:34:53;4.63;;;2.50;;
12884;SDS011;6510;51.362;7.370;2022-11-22T01:37:19;3.00;;;2.20;;
12884;SDS011;6510;51.362;7.370;2022-11-22T01:39:45;2.97;;;2.37;;
12884;SDS011;6510;51.362;7.370;2022-11-22T01:42:10;4.77;;;2.80;;
12884;SDS011;6510;51.362;7.370;2022-11-22T01:44:39;3.40;;;2.40;;
12884;SDS011;6510;51.362;7.370;2022-11-22T01:47:13;4.50;;;2.20;;
12884;SDS011;6510;51.362;7.370;2022-11-22T01:52:18;4.47;;;2.40;;
12884;SDS011;6510;51.362;7.370;2022-11-22T01:54:50;4.57;;;2.53;;
12884;SDS011;6510;51.362;7.370;2022-11-22T01:57:21;4.80;;;2.80;;
12884;SDS011;6510;51.362;7.370;2022-11-22T01:59:51;4.47;;;2.67;;
12884;SDS011;6510;51.362;7.370;2022-11-22T02:02:21;3.90;;;2.57;;
12884;SDS011;6510;51.362;7.370;2022-11-22T02:04:48;4.40;;;2.90;;
12884;SDS011;6510;51.362;7.370;2022-11-22T02:07:24;7.80;;;2.93;;
12884;SDS011;6510;51.362;7.370;2022-11-22T02:09:53;4.07;;;2.60;;
12884;SDS011;6510;51.362;7.370;2022-11-22T02:12:21;8.63;;;3.00;;
12884;SDS011;6510;51.362;7.370;2022-11-22T02:14:50;4.27;;;2.53;;
12884;SDS011;6510;51.362;7.370;2022-11-22T02:17:17;6.70;;;2.60;;
12884;SDS011;6510;51.362;7.370;2022-11-22T02:19:44;4.43;;;2.60;;
12884;SDS011;6510;51.362;7.370;2022-11-22T02:25:13;7.33;;;2.40;;
12884;SDS011;6510;51.362;7.370;2022-11-22T02:27:47;5.20;;;2.17;;
12884;SDS011;6510;51.362;7.370;2022-11-22T02:30:14;5.03;;;2.33;;
12884;SDS011;6510;51.362;7.370;2022-11-22T02:32:40;4.30;;;2.70;;
12884;SDS011;6510;51.362;7.370;2022-11-22T02:35:16;6.67;;;3.50;;
12884;SDS011;6510;51.362;7.370;2022-11-22T02:37:46;6.83;;;2.87;;
12884;SDS011;6510;51.362;7.370;2022-11-22T02:40:16;7.70;;;2.93;;
12884;SDS011;6510;51.362;7.370;2022-11-22T02:42:44;7.00;;;3.20;;
12884;SDS011;6510;51.362;7.370;2022-11-22T02:45:13;3.73;;;2.50;;
12884;SDS011;6510;51.362;7.370;2022-11-22T02:47:38;4.27;;;2.97;;
12884;SDS011;6510;51.362;7.370;2022-11-22T02:50:04;5.83;;;2.80;;
12884;SDS011;6510;51.362;7.370;2022-11-22T02:52:30;4.70;;;2.80;;
12884;SDS011;6510;51.362;7.370;2022-11-22T02:54:56;4.73;;;2.90;;
12884;SDS011;6510;51.362;7.370;2022-11-22T02:57:22;4.87;;;2.87;;
12884;SDS011;6510;51.362;7.370;2022-11-22T02:59:48;4.73;;;2.97;;
12884;SDS011;6510;51.362;7.370;2022-11-22T03:02:13;6.50;;;2.80;;
12884;SDS011;6510;51.362;7.370;2022-11-22T03:04:39;4.17;;;2.77;;
12884;SDS011;6510;51.362;7.370;2022-11-22T03:07:04;5.50;;;2.70;;
12884;SDS011;6510;51.362;7.370;2022-11-22T03:09:30;6.93;;;2.73;;
12884;SDS011;6510;51.362;7.370;2022-11-22T03:11:56;8.57;;;3.03;;
12884;SDS011;6510;51.362;7.370;2022-11-22T03:14:22;4.53;;;2.67;;
12884;SDS011;6510;51.362;7.370;2022-11-22T03:16:47;6.83;;;2.80;;
12884;SDS011;6510;51.362;7.370;2022-11-22T03:19:13;7.47;;;3.00;;
12884;SDS011;6510;51.362;7.370;2022-11-22T03:21:40;5.90;;;2.73;;
12884;SDS011;6510;51.362;7.370;2022-11-22T03:24:06;5.43;;;2.67;;
12884;SDS011;6510;51.362;7.370;2022-11-22T03:26:33;4.87;;;2.70;;
12884;SDS011;6510;51.362;7.370;2022-11-22T03:28:59;6.50;;;3.07;;
12884;SDS011;6510;51.362;7.370;2022-11-22T03:31:25;7.83;;;3.03;;
12884;SDS011;6510;51.362;7.370;2022-11-22T03:33:51;4.77;;;2.80;;
12884;SDS011;6510;51.362;7.370;2022-11-22T03:36:17;6.33;;;2.70;;
12884;SDS011;6510;51.362;7.370;2022-11-22T03:38:43;5.63;;;3.00;;
12884;SDS011;6510;51.362;7.370;2022-11-22T03:41:08;10.47;;;3.27;;
12884;SDS011;6510;51.362;7.370;2022-11-22T03:43:34;8.67;;;2.97;;
12884;SDS011;6510;51.362;7.370;2022-11-22T03:46:00;7.43;;;2.50;;
12884;SDS011;6510;51.362;7.370;2022-11-22T03:48:25;6.50;;;2.77;;
12884;SDS011;6510;51.362;7.370;2022-11-22T03:50:51;6.90;;;2.77;;
12884;SDS011;6510;51.362;7.370;2022-11-22T03:53:26;5.67;;;2.93;;
12884;SDS011;6510;51.362;7.370;2022-11-22T03:55:52;7.10;;;2.70;;
12884;SDS011;6510;51.362;7.370;2022-11-22T03:58:20;5.53;;;2.23;;
12884;SDS011;6510;51.362;7.370;2022-11-22T04:00:45;7.27;;;2.50;;
12884;SDS011;6510;51.362;7.370;2022-11-22T04:03:19;6.33;;;2.17;;
12884;SDS011;6510;51.362;7.370;2022-11-22T04:05:45;4.43;;;2.57;;
12884;SDS011;6510;51.362;7.370;2022-11-22T04:08:12;10.50;;;3.20;;
12884;SDS011;6510;51.362;7.370;2022-11-22T04:10:49;4.93;;;1.83;;
12884;SDS011;6510;51.362;7.370;2022-11-22T04:13:16;4.83;;;2.07;;
12884;SDS011;6510;51.362;7.370;2022-11-22T04:15:44;6.50;;;2.23;;
12884;SDS011;6510;51.362;7.370;2022-11-22T04:18:10;8.50;;;2.10;;
12884;SDS011;6510;51.362;7.370;2022-11-22T04:20:36;4.90;;;2.10;;
12884;SDS011;6510;51.362;7.370;2022-11-22T04:23:22;5.30;;;1.90;;
12884;SDS011;6510;51.362;7.370;2022-11-22T04:25:53;4.77;;;2.00;;
12884;SDS011;6510;51.362;7.370;2022-11-22T04:28:23;6.63;;;2.20;;
12884;SDS011;6510;51.362;7.370;2022-11-22T04:30:49;10.90;;;2.27;;
12884;SDS011;6510;51.362;7.370;2022-11-22T04:33:34;8.07;;;2.10;;
12884;SDS011;6510;51.362;7.370;2022-11-22T04:36:00;14.13;;;2.10;;
12884;SDS011;6510;51.362;7.370;2022-11-22T04:38:26;6.47;;;2.30;;
12884;SDS011;6510;51.362;7.370;2022-11-22T04:40:52;6.57;;;2.00;;
12884;SDS011;6510;51.362;7.370;2022-11-22T04:46:08;7.10;;;2.67;;
12884;SDS011;6510;51.362;7.370;2022-11-22T04:48:37;7.17;;;1.90;;
12884;SDS011;6510;51.362;7.370;2022-11-22T04:51:03;7.07;;;2.03;;
12884;SDS011;6510;51.362;7.370;2022-11-22T04:53:48;9.20;;;1.80;;
12884;SDS011;6510;51.362;7.370;2022-11-22T04:56:17;5.53;;;1.93;;
12884;SDS011;6510;51.362;7.370;2022-11-22T04:58:46;3.87;;;2.10;;
12884;SDS011;6510;51.362;7.370;2022-11-22T05:01:15;3.87;;;2.10;;
12884;SDS011;6510;51.362;7.370;2022-11-22T05:03:40;7.57;;;1.80;;
12884;SDS011;6510;51.362;7.370;2022-11-22T05:06:06;6.17;;;1.97;;
12884;SDS011;6510;51.362;7.370;2022-11-22T05:08:36;7.67;;;2.27;;
12884;SDS011;6510;51.362;7.370;2022-11-22T05:11:02;4.77;;;1.60;;
12884;SDS011;6510;51.362;7.370;2022-11-22T05:13:32;3.57;;;1.60;;
12884;SDS011;6510;51.362;7.370;2022-11-22T05:16:03;8.20;;;2.13;;
12884;SDS011;6510;51.362;7.370;2022-11-22T05:18:30;4.63;;;1.53;;
12884;SDS011;6510;51.362;7.370;2022-11-22T05:20:56;5.27;;;1.87;;
12884;SDS011;6510;51.362;7.370;2022-11-22T05:23:31;6.03;;;2.13;;
12884;SDS011;6510;51.362;7.370;2022-11-22T05:26:19;8.37;;;2.00;;
12884;SDS011;6510;51.362;7.370;2022-11-22T05:28:49;7.13;;;2.30;;
12884;SDS011;6510;51.362;7.370;2022-11-22T05:31:16;6.47;;;2.13;;
12884;SDS011;6510;51.362;7.370;2022-11-22T05:33:47;4.60;;;1.57;;
12884;SDS011;6510;51.362;7.370;2022-11-22T05:36:14;7.30;;;2.30;;
12884;SDS011;6510;51.362;7.370;2022-11-22T05:38:40;6.67;;;2.13;;
12884;SDS011;6510;51.362;7.370;2022-11-22T05:41:10;8.17;;;2.20;;
12884;SDS011;6510;51.362;7.370;2022-11-22T05:43:37;6.70;;;2.00;;
12884;SDS011;6510;51.362;7.370;2022-11-22T05:46:25;7.47;;;2.60;;
12884;SDS011;6510;51.362;7.370;2022-11-22T05:48:53;6.53;;;1.90;;
12884;SDS011;6510;51.362;7.370;2022-11-22T05:51:21;7.03;;;1.77;;
12884;SDS011;6510;51.362;7.370;2022-11-22T05:53:51;8.67;;;2.13;;
12884;SDS011;6510;51.362;7.370;2022-11-22T05:56:18;6.60;;;1.80;;
12884;SDS011;6510;51.362;7.370;2022-11-22T05:58:50;8.47;;;1.90;;
12884;SDS011;6510;51.362;7.370;2022-11-22T06:01:18;7.90;;;1.90;;
12884;SDS011;6510;51.362;7.370;2022-11-22T06:03:45;6.50;;;2.13;;
12884;SDS011;6510;51.362;7.370;2022-11-22T06:06:14;8.90;;;2.03;;
12884;SDS011;6510;51.362;7.370;2022-11-22T06:08:52;11.77;;;2.10;;
12884;SDS011;6510;51.362;7.370;2022-11-22T06:11:18;7.83;;;2.00;;
12884;SDS011;6510;51.362;7.370;2022-11-22T06:13:48;6.10;;;2.10;;
12884;SDS011;6510;51.362;7.370;2022-11-22T06:16:15;8.73;;;2.40;;
12884;SDS011;6510;51.362;7.370;2022-11-22T06:18:41;7.07;;;1.90;;
12884;SDS011;6510;51.362;7.370;2022-11-22T06:21:12;8.07;;;2.07;;
12884;SDS011;6510;51.362;7.370;2022-11-22T06:23:42;11.87;;;2.43;;
12884;SDS011;6510;51.362;7.370;2022-11-22T06:26:09;8.03;;;2.27;;
12884;SDS011;6510;51.362;7.370;2022-11-22T06:28:40;8.33;;;2.00;;
12884;SDS011;6510;51.362;7.370;2022-11-22T06:33:36;7.97;;;2.33;;
12884;SDS011;6510;51.362;7.370;2022-11-22T06:36:06;6.70;;;2.50;;
12884;SDS011;6510;51.362;7.370;2022-11-22T06:38:37;10.07;;;2.13;;
12884;SDS011;6510;51.362;7.370;2022-11-22T06:41:05;6.83;;;2.13;;
12884;SDS011;6510;51.362;7.370;2022-11-22T06:43:33;7.60;;;2.20;;
12884;SDS011;6510;51.362;7.370;2022-11-22T06:45:59;4.60;;;1.93;;
12884;SDS011;6510;51.362;7.370;2022-11-22T06:48:27;8.73;;;2.30;;
12884;SDS011;6510;51.362;7.370;2022-11-22T06:50:58;12.27;;;2.33;;
12884;SDS011;6510;51.362;7.370;2022-11-22T06:53:25;8.53;;;2.20;;
12884;SDS011;6510;51.362;7.370;2022-11-22T06:55:57;7.70;;;2.07;;
12884;SDS011;6510;51.362;7.370;2022-11-22T06:58:27;7.63;;;2.20;;
12884;SDS011;6510;51.362;7.370;2022-11-22T07:00:58;7.77;;;1.97;;
12884;SDS011;6510;51.362;7.370;2022-11-22T07:03:35;6.70;;;2.00;;
12884;SDS011;6510;51.362;7.370;2022-11-22T07:06:01;7.07;;;1.93;;
12884;SDS011;6510;51.362;7.370;2022-11-22T07:08:28;7.70;;;2.00;;
12884;SDS011;6510;51.362;7.370;2022-11-22T07:10:53;9.27;;;1.90;;
12884;SDS011;6510;51.362;7.370;2022-11-22T07:13:19;6.23;;;1.87;;
12884;SDS011;6510;51.362;7.370;2022-11-22T07:15:58;7.30;;;2.30;;
12884;SDS011;6510;51.362;7.370;2022-11-22T07:18:24;8.07;;;2.27;;
12884;SDS011;6510;51.362;7.370;2022-11-22T07:20:51;8.90;;;2.10;;
12884;SDS011;6510;51.362;7.370;2022-11-22T07:23:17;8.07;;;2.23;;
12884;SDS011;6510;51.362;7.370;2022-11-22T07:25:46;8.53;;;1.90;;
12884;SDS011;6510;51.362;7.370;2022-11-22T07:28:13;4.27;;;1.70;;
12884;SDS011;6510;51.362;7.370;2022-11-22T07:30:39;8.20;;;2.07;;
12884;SDS011;6510;51.362;7.370;2022-11-22T07:33:05;9.67;;;2.20;;
12884;SDS011;6510;51.362;7.370;2022-11-22T07:35:31;7.60;;;2.10;;
12884;SDS011;6510;51.362;7.370;2022-11-22T07:37:57;5.80;;;1.83;;
12884;SDS011;6510;51.362;7.370;2022-11-22T07:40:22;8.10;;;2.00;;
12884;SDS011;6510;51.362;7.370;2022-11-22T07:42:48;10.20;;;2.10;;
12884;SDS011;6510;51.362;7.370;2022-11-22T07:45:14;6.63;;;2.13;;
12884;SDS011;6510;51.362;7.370;2022-11-22T07:47:39;5.90;;;2.00;;
12884;SDS011;6510;51.362;7.370;2022-11-22T07:50:07;8.20;;;1.70;;
12884;SDS011;6510;51.362;7.370;2022-11-22T07:52:33;10.20;;;2.10;;
12884;SDS011;6510;51.362;7.370;2022-11-22T07:54:59;5.00;;;2.17;;
12884;SDS011;6510;51.362;7.370;2022-11-22T07:57:24;8.90;;;2.73;;
12884;SDS011;6510;51.362;7.370;2022-11-22T07:59:50;5.47;;;2.10;;
12884;SDS011;6510;51.362;7.370;2022-11-22T08:02:16;7.83;;;1.90;;
12884;SDS011;6510;51.362;7.370;2022-11-22T08:04:41;7.37;;;2.17;;
12884;SDS011;6510;51.362;7.370;2022-11-22T08:07:07;7.43;;;1.83;;
12884;SDS011;6510;51.362;7.370;2022-11-22T08:09:33;5.87;;;2.07;;
12884;SDS011;6510;51.362;7.370;2022-11-22T08:11:59;12.37;;;2.57;;
12884;SDS011;6510;51.362;7.370;2022-11-22T08:14:25;8.37;;;2.07;;
12884;SDS011;6510;51.362;7.370;2022-11-22T08:16:51;4.90;;;1.80;;
12884;SDS011;6510;51.362;7.370;2022-11-22T08:19:19;8.10;;;2.37;;
12884;SDS011;6510;51.362;7.370;2022-11-22T08:21:45;7.37;;;1.97;;
12884;SDS011;6510;51.362;7.370;2022-11-22T08:24:12;6.20;;;1.80;;
12884;SDS011;6510;51.362;7.370;2022-11-22T08:26:38;8.43;;;2.57;;
12884;SDS011;6510;51.362;7.370;2022-11-22T08:29:05;7.07;;;2.00;;
12884;SDS011;6510;51.362;7.370;2022-11-22T08:31:31;7.47;;;1.97;;
12884;SDS011;6510;51.362;7.370;2022-11-22T08:34:00;6.30;;;1.70;;
12884;SDS011;6510;51.362;7.370;2022-11-22T08:36:29;7.10;;;2.10;;
12884;SDS011;6510;51.362;7.370;2022-11-22T08:38:55;5.87;;;1.47;;
12884;SDS011;6510;51.362;7.370;2022-11-22T08:41:21;6.23;;;1.73;;
12884;SDS011;6510;51.362;7.370;2022-11-22T08:43:50;4.43;;;1.70;;
12884;SDS011;6510;51.362;7.370;2022-11-22T08:46:16;3.67;;;1.60;;
12884;SDS011;6510;51.362;7.370;2022-11-22T08:48:42;7.43;;;1.80;;
12884;SDS011;6510;51.362;7.370;2022-11-22T08:51:09;5.97;;;1.60;;
12884;SDS011;6510;51.362;7.370;2022-11-22T08:53:36;5.07;;;1.77;;
12884;SDS011;6510;51.362;7.370;2022-11-22T08:56:04;4.33;;;1.73;;
12884;SDS011;6510;51.362;7.370;2022-11-22T08:58:34;4.47;;;1.60;;
12884;SDS011;6510;51.362;7.370;2022-11-22T09:01:04;5.27;;;1.80;;
12884;SDS011;6510;51.362;7.370;2022-11-22T09:03:32;5.77;;;1.80;;
12884;SDS011;6510;51.362;7.370;2022-11-22T09:06:02;4.97;;;1.47;;
12884;SDS011;6510;51.362;7.370;2022-11-22T09:08:38;6.10;;;1.83;;
12884;SDS011;6510;51.362;7.370;2022-11-22T09:11:12;6.07;;;1.93;;
12884;SDS011;6510;51.362;7.370;2022-11-22T09:13:39;5.93;;;2.00;;
12884;SDS011;6510;51.362;7.370;2022-11-22T09:16:12;6.40;;;1.70;;
12884;SDS011;6510;51.362;7.370;2022-11-22T09:18:47;5.73;;;1.57;;
12884;SDS011;6510;51.362;7.370;2022-11-22T09:21:14;7.57;;;1.60;;
12884;SDS011;6510;51.362;7.370;2022-11-22T09:23:42;7.50;;;1.80;;
12884;SDS011;6510;51.362;7.370;2022-11-22T09:26:09;5.80;;;1.63;;
12884;SDS011;6510;51.362;7.370;2022-11-22T09:28:39;6.37;;;1.60;;
12884;SDS011;6510;51.362;7.370;2022-11-22T09:31:13;3.47;;;1.50;;
12884;SDS011;6510;51.362;7.370;2022-11-22T09:33:43;9.17;;;1.83;;
12884;SDS011;6510;51.362;7.370;2022-11-22T09:36:13;3.77;;;1.30;;
12884;SDS011;6510;51.362;7.370;2022-11-22T09:38:40;5.27;;;1.80;;
12884;SDS011;6510;51.362;7.370;2022-11-22T09:47:04;4.23;;;1.43;;
12884;SDS011;6510;51.362;7.370;2022-11-22T09:49:39;3.77;;;1.67;;
12884;SDS011;6510;51.362;7.370;2022-11-22T09:57:44;5.67;;;2.00;;
12884;SDS011;6510;51.362;7.370;2022-11-22T10:00:20;7.17;;;1.87;;
12884;SDS011;6510;51.362;7.370;2022-11-22T10:03:02;4.20;;;1.70;;
12884;SDS011;6510;51.362;7.370;2022-11-22T10:05:51;6.20;;;1.90;;
12884;SDS011;6510;51.362;7.370;2022-11-22T10:14:33;8.90;;;2.30;;
12884;SDS011;6510;51.362;7.370;2022-11-22T10:22:42;5.47;;;1.60;;
12884;SDS011;6510;51.362;7.370;2022-11-22T10:25:12;5.07;;;1.50;;
12884;SDS011;6510;51.362;7.370;2022-11-22T10:27:58;6.80;;;1.90;;
12884;SDS011;6510;51.362;7.370;2022-11-22T10:30:33;3.37;;;1.80;;
12884;SDS011;6510;51.362;7.370;2022-11-22T10:33:07;6.90;;;1.80;;
12884;SDS011;6510;51.362;7.370;2022-11-22T10:35:38;8.83;;;1.60;;
12884;SDS011;6510;51.362;7.370;2022-11-22T10:38:31;4.20;;;1.20;;
12884;SDS011;6510;51.362;7.370;2022-11-22T10:44:05;3.93;;;1.50;;
12884;SDS011;6510;51.362;7.370;2022-11-22T10:52:08;4.80;;;1.60;;
12884;SDS011;6510;51.362;7.370;2022-11-22T10:55:02;6.87;;;1.77;;
12884;SDS011;6510;51.362;7.370;2022-11-22T10:57:53;5.60;;;2.17;;
12884;SDS011;6510;51.362;7.370;2022-11-22T11:00:48;5.00;;;1.70;;
12884;SDS011;6510;51.362;7.370;2022-11-22T11:03:35;5.60;;;1.67;;
12884;SDS011;6510;51.362;7.370;2022-11-22T11:06:18;4.33;;;1.20;;
12884;SDS011;6510;51.362;7.370;2022-11-22T11:09:10;2.30;;;1.17;;
12884;SDS011;6510;51.362;7.370;2022-11-22T11:11:46;5.07;;;1.40;;
12884;SDS011;6510;51.362;7.370;2022-11-22T11:16:55;3.97;;;1.27;;
12884;SDS011;6510;51.362;7.370;2022-11-22T11:19:24;3.03;;;1.40;;
12884;SDS011;6510;51.362;7.370;2022-11-22T11:24:31;5.73;;;1.97;;
12884;SDS011;6510;51.362;7.370;2022-11-22T11:26:57;6.13;;;1.43;;
12884;SDS011;6510;51.362;7.370;2022-11-22T11:29:31;2.07;;;1.20;;
12884;SDS011;6510;51.362;7.370;2022-11-22T11:32:05;3.87;;;1.30;;
12884;SDS011;6510;51.362;7.370;2022-11-22T11:34:33;3.87;;;1.57;;
12884;SDS011;6510;51.362;7.370;2022-11-22T11:36:59;4.90;;;1.57;;
12884;SDS011;6510;51.362;7.370;2022-11-22T11:41:54;3.87;;;1.40;;
12884;SDS011;6510;51.362;7.370;2022-11-22T11:46:52;1.87;;;1.03;;
12884;SDS011;6510;51.362;7.370;2022-11-22T11:49:25;3.47;;;1.10;;
12884;SDS011;6510;51.362;7.370;2022-11-22T11:52:14;2.40;;;1.10;;
12884;SDS011;6510;51.362;7.370;2022-11-22T11:54:47;2.70;;;1.20;;
12884;SDS011;6510;51.362;7.370;2022-11-22T11:57:15;3.33;;;0.90;;
12884;SDS011;6510;51.362;7.370;2022-11-22T11:59:46;3.57;;;1.20;;
12884;SDS011;6510;51.362;7.370;2022-11-22T12:10:01;4.07;;;1.03;;
12884;SDS011;6510;51.362;7.370;2022-11-22T12:12:50;4.27;;;0.93;;
12884;SDS011;6510;51.362;7.370;2022-11-22T12:15:23;2.60;;;1.07;;
12884;SDS011;6510;51.362;7.370;2022-11-22T12:17:59;1.97;;;0.70;;
12884;SDS011;6510;51.362;7.370;2022-11-22T12:20:49;4.43;;;1.20;;
12884;SDS011;6510;51.362;7.370;2022-11-22T12:25:55;2.00;;;1.00;;
12884;SDS011;6510;51.362;7.370;2022-11-22T12:28:22;1.53;;;0.93;;
12884;SDS011;6510;51.362;7.370;2022-11-22T12:30:52;3.43;;;0.80;;
12884;SDS011;6510;51.362;7.370;2022-11-22T12:33:26;4.57;;;0.80;;
12884;SDS011;6510;51.362;7.370;2022-11-22T12:36:09;3.50;;;0.93;;
12884;SDS011;6510;51.362;7.370;2022-11-22T12:38:41;4.00;;;1.30;;
12884;SDS011;6510;51.362;7.370;2022-11-22T12:41:09;2.47;;;0.80;;
12884;SDS011;6510;51.362;7.370;2022-11-22T12:46:11;3.10;;;1.20;;
12884;SDS011;6510;51.362;7.370;2022-11-22T12:48:57;2.00;;;0.80;;
12884;SDS011;6510;51.362;7.370;2022-11-22T12:53:59;1.33;;;1.10;;
12884;SDS011;6510;51.362;7.370;2022-11-22T12:56:41;1.90;;;0.80;;
12884;SDS011;6510;51.362;7.370;2022-11-22T13:05:09;3.07;;;1.30;;
12884;SDS011;6510;51.362;7.370;2022-11-22T13:10:37;2.87;;;1.20;;
12884;SDS011;6510;51.362;7.370;2022-11-22T13:13:22;1.87;;;1.43;;
12884;SDS011;6510;51.362;7.370;2022-11-22T13:15:50;3.50;;;1.10;;
12884;SDS011;6510;51.362;7.370;2022-11-22T13:18:17;2.27;;;0.87;;
12884;SDS011;6510;51.362;7.370;2022-11-22T13:20:46;3.13;;;1.00;;
12884;SDS011;6510;51.362;7.370;2022-11-22T13:28:39;3.10;;;1.50;;
12884;SDS011;6510;51.362;7.370;2022-11-22T13:31:12;4.07;;;1.10;;
12884;SDS011;6510;51.362;7.370;2022-11-22T13:33:51;3.27;;;1.50;;
12884;SDS011;6510;51.362;7.370;2022-11-22T13:36:24;2.10;;;1.00;;
12884;SDS011;6510;51.362;7.370;2022-11-22T13:39:06;1.97;;;0.90;;
12884;SDS011;6510;51.362;7.370;2022-11-22T13:46:55;3.30;;;1.00;;
12884;SDS011;6510;51.362;7.370;2022-11-22T13:49:38;0.80;;;0.80;;
12884;SDS011;6510;51.362;7.370;2022-11-22T14:05:18;1.90;;;0.80;;
12884;SDS011;6510;51.362;7.370;2022-11-22T14:07:56;1.10;;;0.87;;
12884;SDS011;6510;51.362;7.370;2022-11-22T14:10:35;2.60;;;0.73;;
12884;SDS011;6510;51.362;7.370;2022-11-22T14:16:13;7.00;;;0.83;;
12884;SDS011;6510;51.362;7.370;2022-11-22T14:32:03;3.23;;;1.00;;
12884;SDS011;6510;51.362;7.370;2022-11-22T14:40:49;1.03;;;0.73;;
12884;SDS011;6510;51.362;7.370;2022-11-22T14:48:55;2.23;;;0.93;;
12884;SDS011;6510;51.362;7.370;2022-11-22T14:51:28;3.03;;;1.20;;
12884;SDS011;6510;51.362;7.370;2022-11-22T14:54:01;1.77;;;1.00;;
12884;SDS011;6510;51.362;7.370;2022-11-22T14:56:55;1.23;;;0.77;;
12884;SDS011;6510;51.362;7.370;2022-11-22T15:04:45;0.60;;;0.53;;
12884;SDS011;6510;51.362;7.370;2022-11-22T15:16:23;2.43;;;1.00;;
12884;SDS011;6510;51.362;7.370;2022-11-22T15:18:52;1.50;;;0.73;;
12884;SDS011;6510;51.362;7.370;2022-11-22T15:21:29;1.63;;;0.70;;
12884;SDS011;6510;51.362;7.370;2022-11-22T15:23:57;3.37;;;1.03;;
12884;SDS011;6510;51.362;7.370;2022-11-22T15:26:24;0.90;;;0.60;;
12884;SDS011;6510;51.362;7.370;2022-11-22T15:28:55;2.53;;;1.00;;
12884;SDS011;6510;51.362;7.370;2022-11-22T15:31:27;3.90;;;2.43;;
12884;SDS011;6510;51.362;7.370;2022-11-22T15:34:00;5.07;;;3.10;;
12884;SDS011;6510;51.362;7.370;2022-11-22T15:39:16;5.83;;;3.80;;
12884;SDS011;6510;51.362;7.370;2022-11-22T15:41:51;8.20;;;5.07;;
12884;SDS011;6510;51.362;7.370;2022-11-22T15:44:20;3.73;;;2.30;;
12884;SDS011;6510;51.362;7.370;2022-11-22T15:46:48;0.70;;;0.70;;
12884;SDS011;6510;51.362;7.370;2022-11-22T15:49:15;4.33;;;1.53;;
12884;SDS011;6510;51.362;7.370;2022-11-22T15:54:21;2.57;;;1.50;;
12884;SDS011;6510;51.362;7.370;2022-11-22T15:56:53;1.17;;;1.07;;
12884;SDS011;6510;51.362;7.370;2022-11-22T15:59:26;3.30;;;1.23;;
12884;SDS011;6510;51.362;7.370;2022-11-22T16:02:13;1.63;;;1.27;;
12884;SDS011;6510;51.362;7.370;2022-11-22T16:04:57;0.90;;;0.90;;
12884;SDS011;6510;51.362;7.370;2022-11-22T16:08:06;2.53;;;1.33;;
12884;SDS011;6510;51.362;7.370;2022-11-22T16:10:24;3.10;;;1.20;;
12884;SDS011;6510;51.362;7.370;2022-11-22T16:12:51;2.27;;;1.20;;
12884;SDS011;6510;51.362;7.370;2022-11-22T16:15:27;3.03;;;1.50;;
12884;SDS011;6510;51.362;7.370;2022-11-22T16:18:13;1.37;;;1.13;;
12884;SDS011;6510;51.362;7.370;2022-11-22T16:23:30;2.50;;;1.30;;
12884;SDS011;6510;51.362;7.370;2022-11-22T16:28:46;2.53;;;1.53;;
12884;SDS011;6510;51.362;7.370;2022-11-22T16:33:42;2.50;;;1.20;;
12884;SDS011;6510;51.362;7.370;2022-11-22T16:36:12;2.50;;;1.30;;
12884;SDS011;6510;51.362;7.370;2022-11-22T16:38:39;1.27;;;1.17;;
12884;SDS011;6510;51.362;7.370;2022-11-22T16:41:19;2.40;;;1.37;;
12884;SDS011;6510;51.362;7.370;2022-11-22T16:43:47;1.43;;;1.17;;
12884;SDS011;6510;51.362;7.370;2022-11-22T16:46:17;4.20;;;1.43;;
12884;SDS011;6510;51.362;7.370;2022-11-22T16:48:43;3.37;;;2.20;;
12884;SDS011;6510;51.362;7.370;2022-11-22T16:51:13;1.63;;;1.47;;
12884;SDS011;6510;51.362;7.370;2022-11-22T16:53:42;1.50;;;1.40;;
12884;SDS011;6510;51.362;7.370;2022-11-22T16:56:19;1.67;;;1.30;;
12884;SDS011;6510;51.362;7.370;2022-11-22T16:58:47;2.13;;;1.20;;
12884;SDS011;6510;51.362;7.370;2022-11-22T17:01:14;1.37;;;1.27;;
12884;SDS011;6510;51.362;7.370;2022-11-22T17:03:45;1.20;;;1.20;;
12884;SDS011;6510;51.362;7.370;2022-11-22T17:06:16;2.30;;;1.30;;
12884;SDS011;6510;51.362;7.370;2022-11-22T17:08:44;1.70;;;1.60;;
12884;SDS011;6510;51.362;7.370;2022-11-22T17:11:10;2.00;;;1.40;;
12884;SDS011;6510;51.362;7.370;2022-11-22T17:13:39;1.40;;;1.30;;
12884;SDS011;6510;51.362;7.370;2022-11-22T17:16:04;1.50;;;1.40;;
12884;SDS011;6510;51.362;7.370;2022-11-22T17:18:30;2.27;;;1.30;;
12884;SDS011;6510;51.362;7.370;2022-11-22T17:20:56;1.50;;;1.30;;
12884;SDS011;6510;51.362;7.370;2022-11-22T17:23:28;2.50;;;1.90;;
12884;SDS011;6510;51.362;7.370;2022-11-22T17:25:59;1.40;;;1.40;;
12884;SDS011;6510;51.362;7.370;2022-11-22T17:28:25;1.67;;;1.57;;
12884;SDS011;6510;51.362;7.370;2022-11-22T17:30:50;1.53;;;1.40;;
12884;SDS011;6510;51.362;7.370;2022-11-22T17:33:16;2.43;;;1.47;;
12884;SDS011;6510;51.362;7.370;2022-11-22T17:35:42;2.13;;;1.37;;
12884;SDS011;6510;51.362;7.370;2022-11-22T17:38:09;1.67;;;1.57;;
12884;SDS011;6510;51.362;7.370;2022-11-22T17:40:36;1.67;;;1.57;;
12884;SDS011;6510;51.362;7.370;2022-11-22T17:43:02;1.30;;;1.30;;
12884;SDS011;6510;51.362;7.370;2022-11-22T17:45:28;1.50;;;1.37;;
12884;SDS011;6510;51.362;7.370;2022-11-22T17:47:53;1.40;;;1.30;;
12884;SDS011;6510;51.362;7.370;2022-11-22T17:50:19;2.40;;;1.27;;
12884;SDS011;6510;51.362;7.370;2022-11-22T17:52:45;1.53;;;1.10;;